sensor_id;sensor_type;location;lat;lon;timestamp;P1;durP1;ratioP1;P2;durP2;ratioP2
48925;SDS011;39838;59.938;30.642;2023-05-29T00:01:26;9.45;;;4.07;;
48925;SDS011;39838;59.938;30.642;2023-05-29T00:03:53;13.98;;;4.22;;
48925;SDS011;39838;59.938;30.642;2023-05-29T00:06:20;11.70;;;4.13;;
48925;SDS011;39838;59.938;30.642;2023-05-29T00:08:49;14.85;;;4.15;;
48925;SDS011;39838;59.938;30.642;2023-05-29T00:11:16;10.75;;;4.25;;
48925;SDS011;39838;59.938;30.642;2023-05-29T00:13:43;9.57;;;4.07;;
48925;SDS011;39838;59.938;30.642;2023-05-29T00:16:10;12.00;;;4.50;;
48925;SDS011;39838;59.938;30.642;2023-05-29T00:18:38;15.10;;;4.20;;
48925;SDS011;39838;59.938;30.642;2023-05-29T00:21:11;9.57;;;4.43;;
48925;SDS011;39838;59.938;30.642;2023-05-29T00:23:39;12.32;;;4.70;;
48925;SDS011;39838;59.938;30.642;2023-05-29T00:26:08;11.75;;;4.28;;
48925;SDS011;39838;59.938;30.642;2023-05-29T00:28:35;13.02;;;4.63;;
48925;SDS011;39838;59.938;30.642;2023-05-29T00:31:03;14.13;;;4.22;;
48925;SDS011;39838;59.938;30.642;2023-05-29T00:33:31;11.68;;;4.57;;
48925;SDS011;39838;59.938;30.642;2023-05-29T00:35:58;11.93;;;5.05;;
48925;SDS011;39838;59.938;30.642;2023-05-29T00:38:25;13.40;;;4.82;;
48925;SDS011;39838;59.938;30.642;2023-05-29T00:40:52;7.72;;;4.50;;
48925;SDS011;39838;59.938;30.642;2023-05-29T00:43:21;9.23;;;4.38;;
48925;SDS011;39838;59.938;30.642;2023-05-29T00:45:48;8.32;;;4.28;;
48925;SDS011;39838;59.938;30.642;2023-05-29T00:48:16;11.13;;;4.32;;
48925;SDS011;39838;59.938;30.642;2023-05-29T00:50:43;10.18;;;4.38;;
48925;SDS011;39838;59.938;30.642;2023-05-29T00:53:11;9.80;;;4.32;;
48925;SDS011;39838;59.938;30.642;2023-05-29T00:55:40;7.35;;;4.28;;
48925;SDS011;39838;59.938;30.642;2023-05-29T00:58:07;9.63;;;4.22;;
48925;SDS011;39838;59.938;30.642;2023-05-29T01:00:36;7.25;;;4.15;;
48925;SDS011;39838;59.938;30.642;2023-05-29T01:03:04;10.85;;;4.53;;
48925;SDS011;39838;59.938;30.642;2023-05-29T01:05:33;9.90;;;4.47;;
48925;SDS011;39838;59.938;30.642;2023-05-29T01:08:02;9.38;;;4.40;;
48925;SDS011;39838;59.938;30.642;2023-05-29T01:10:29;7.63;;;4.07;;
48925;SDS011;39838;59.938;30.642;2023-05-29T01:12:59;9.55;;;4.40;;
48925;SDS011;39838;59.938;30.642;2023-05-29T01:15:33;11.40;;;4.15;;
48925;SDS011;39838;59.938;30.642;2023-05-29T01:18:18;9.20;;;4.40;;
48925;SDS011;39838;59.938;30.642;2023-05-29T01:20:52;11.05;;;4.10;;
48925;SDS011;39838;59.938;30.642;2023-05-29T01:23:38;7.82;;;3.90;;
48925;SDS011;39838;59.938;30.642;2023-05-29T01:26:21;12.07;;;4.43;;
48925;SDS011;39838;59.938;30.642;2023-05-29T01:29:07;9.27;;;4.32;;
48925;SDS011;39838;59.938;30.642;2023-05-29T01:31:36;6.78;;;4.07;;
48925;SDS011;39838;59.938;30.642;2023-05-29T01:34:06;8.07;;;4.35;;
48925;SDS011;39838;59.938;30.642;2023-05-29T01:36:33;7.53;;;3.80;;
48925;SDS011;39838;59.938;30.642;2023-05-29T01:39:00;12.88;;;4.00;;
48925;SDS011;39838;59.938;30.642;2023-05-29T01:41:28;15.80;;;4.28;;
48925;SDS011;39838;59.938;30.642;2023-05-29T01:43:57;12.00;;;4.57;;
48925;SDS011;39838;59.938;30.642;2023-05-29T01:46:27;10.50;;;4.28;;
48925;SDS011;39838;59.938;30.642;2023-05-29T01:48:55;10.02;;;4.20;;
48925;SDS011;39838;59.938;30.642;2023-05-29T01:51:22;10.15;;;3.97;;
48925;SDS011;39838;59.938;30.642;2023-05-29T01:53:49;8.75;;;3.92;;
48925;SDS011;39838;59.938;30.642;2023-05-29T01:56:17;6.68;;;3.97;;
48925;SDS011;39838;59.938;30.642;2023-05-29T01:58:45;6.88;;;3.45;;
48925;SDS011;39838;59.938;30.642;2023-05-29T02:01:12;8.27;;;4.03;;
48925;SDS011;39838;59.938;30.642;2023-05-29T02:03:41;10.23;;;4.10;;
48925;SDS011;39838;59.938;30.642;2023-05-29T02:06:08;9.65;;;4.10;;
48925;SDS011;39838;59.938;30.642;2023-05-29T02:08:36;9.25;;;4.43;;
48925;SDS011;39838;59.938;30.642;2023-05-29T02:11:03;8.55;;;4.03;;
48925;SDS011;39838;59.938;30.642;2023-05-29T02:13:30;9.25;;;4.20;;
48925;SDS011;39838;59.938;30.642;2023-05-29T02:15:58;9.77;;;4.15;;
48925;SDS011;39838;59.938;30.642;2023-05-29T02:18:25;10.68;;;3.95;;
48925;SDS011;39838;59.938;30.642;2023-05-29T02:20:54;10.10;;;4.22;;
48925;SDS011;39838;59.938;30.642;2023-05-29T02:23:21;7.25;;;3.85;;
48925;SDS011;39838;59.938;30.642;2023-05-29T02:25:49;7.93;;;4.10;;
48925;SDS011;39838;59.938;30.642;2023-05-29T02:28:16;11.88;;;4.07;;
48925;SDS011;39838;59.938;30.642;2023-05-29T02:30:43;7.68;;;4.05;;
48925;SDS011;39838;59.938;30.642;2023-05-29T02:33:11;10.38;;;4.30;;
48925;SDS011;39838;59.938;30.642;2023-05-29T02:35:38;13.82;;;4.28;;
48925;SDS011;39838;59.938;30.642;2023-05-29T02:38:06;9.38;;;3.92;;
48925;SDS011;39838;59.938;30.642;2023-05-29T02:40:33;10.80;;;4.20;;
48925;SDS011;39838;59.938;30.642;2023-05-29T02:43:00;13.23;;;4.40;;
48925;SDS011;39838;59.938;30.642;2023-05-29T02:45:28;11.65;;;4.40;;
48925;SDS011;39838;59.938;30.642;2023-05-29T02:47:55;8.07;;;3.75;;
48925;SDS011;39838;59.938;30.642;2023-05-29T02:50:22;11.98;;;4.13;;
48925;SDS011;39838;59.938;30.642;2023-05-29T02:52:49;9.30;;;4.35;;
48925;SDS011;39838;59.938;30.642;2023-05-29T02:55:17;10.00;;;4.28;;
48925;SDS011;39838;59.938;30.642;2023-05-29T02:57:46;9.85;;;4.65;;
48925;SDS011;39838;59.938;30.642;2023-05-29T03:00:16;8.60;;;4.72;;
48925;SDS011;39838;59.938;30.642;2023-05-29T03:02:43;11.00;;;4.80;;
48925;SDS011;39838;59.938;30.642;2023-05-29T03:05:10;12.25;;;4.57;;
48925;SDS011;39838;59.938;30.642;2023-05-29T03:07:38;8.80;;;4.78;;
48925;SDS011;39838;59.938;30.642;2023-05-29T03:10:05;10.93;;;4.90;;
48925;SDS011;39838;59.938;30.642;2023-05-29T03:12:34;10.27;;;4.90;;
48925;SDS011;39838;59.938;30.642;2023-05-29T03:15:01;11.30;;;4.88;;
48925;SDS011;39838;59.938;30.642;2023-05-29T03:17:31;14.70;;;4.82;;
48925;SDS011;39838;59.938;30.642;2023-05-29T03:19:58;11.82;;;5.03;;
48925;SDS011;39838;59.938;30.642;2023-05-29T03:22:25;9.75;;;4.25;;
48925;SDS011;39838;59.938;30.642;2023-05-29T03:24:52;10.43;;;4.65;;
48925;SDS011;39838;59.938;30.642;2023-05-29T03:27:19;14.15;;;5.15;;
48925;SDS011;39838;59.938;30.642;2023-05-29T03:29:48;13.98;;;4.55;;
48925;SDS011;39838;59.938;30.642;2023-05-29T03:32:15;11.52;;;4.57;;
48925;SDS011;39838;59.938;30.642;2023-05-29T03:34:42;14.52;;;5.03;;
48925;SDS011;39838;59.938;30.642;2023-05-29T03:37:09;15.35;;;5.13;;
48925;SDS011;39838;59.938;30.642;2023-05-29T03:39:36;14.43;;;4.80;;
48925;SDS011;39838;59.938;30.642;2023-05-29T03:42:04;12.75;;;4.70;;
48925;SDS011;39838;59.938;30.642;2023-05-29T03:44:31;17.88;;;5.30;;
48925;SDS011;39838;59.938;30.642;2023-05-29T03:47:00;14.38;;;5.32;;
48925;SDS011;39838;59.938;30.642;2023-05-29T03:49:27;14.05;;;5.90;;
48925;SDS011;39838;59.938;30.642;2023-05-29T03:51:54;14.35;;;5.78;;
48925;SDS011;39838;59.938;30.642;2023-05-29T03:54:21;18.70;;;6.38;;
48925;SDS011;39838;59.938;30.642;2023-05-29T03:56:48;15.70;;;6.65;;
48925;SDS011;39838;59.938;30.642;2023-05-29T03:59:15;15.88;;;6.32;;
48925;SDS011;39838;59.938;30.642;2023-05-29T04:01:43;16.88;;;6.32;;
48925;SDS011;39838;59.938;30.642;2023-05-29T04:04:11;11.68;;;4.95;;
48925;SDS011;39838;59.938;30.642;2023-05-29T04:06:38;9.65;;;4.50;;
48925;SDS011;39838;59.938;30.642;2023-05-29T04:09:06;10.90;;;4.28;;
48925;SDS011;39838;59.938;30.642;2023-05-29T04:11:34;10.25;;;4.60;;
48925;SDS011;39838;59.938;30.642;2023-05-29T04:14:01;11.27;;;4.40;;
48925;SDS011;39838;59.938;30.642;2023-05-29T04:16:29;12.15;;;4.57;;
48925;SDS011;39838;59.938;30.642;2023-05-29T04:18:56;13.18;;;4.80;;
48925;SDS011;39838;59.938;30.642;2023-05-29T04:21:25;13.82;;;4.55;;
48925;SDS011;39838;59.938;30.642;2023-05-29T04:23:52;12.02;;;4.78;;
48925;SDS011;39838;59.938;30.642;2023-05-29T04:26:20;13.40;;;4.50;;
48925;SDS011;39838;59.938;30.642;2023-05-29T04:28:50;9.77;;;4.80;;
48925;SDS011;39838;59.938;30.642;2023-05-29T04:31:22;11.75;;;4.57;;
48925;SDS011;39838;59.938;30.642;2023-05-29T04:33:50;12.07;;;4.50;;
48925;SDS011;39838;59.938;30.642;2023-05-29T04:36:20;14.20;;;4.88;;
48925;SDS011;39838;59.938;30.642;2023-05-29T04:38:52;12.30;;;4.88;;
48925;SDS011;39838;59.938;30.642;2023-05-29T04:41:19;11.10;;;4.35;;
48925;SDS011;39838;59.938;30.642;2023-05-29T04:43:49;14.60;;;4.63;;
48925;SDS011;39838;59.938;30.642;2023-05-29T04:46:17;11.93;;;4.40;;
48925;SDS011;39838;59.938;30.642;2023-05-29T04:48:44;13.60;;;5.00;;
48925;SDS011;39838;59.938;30.642;2023-05-29T04:51:11;13.43;;;4.43;;
48925;SDS011;39838;59.938;30.642;2023-05-29T04:53:39;9.88;;;4.72;;
48925;SDS011;39838;59.938;30.642;2023-05-29T04:56:08;10.52;;;4.10;;
48925;SDS011;39838;59.938;30.642;2023-05-29T04:58:35;12.25;;;4.50;;
48925;SDS011;39838;59.938;30.642;2023-05-29T05:01:03;12.68;;;4.22;;
48925;SDS011;39838;59.938;30.642;2023-05-29T05:03:30;12.18;;;4.55;;
48925;SDS011;39838;59.938;30.642;2023-05-29T05:05:59;12.23;;;5.05;;
48925;SDS011;39838;59.938;30.642;2023-05-29T05:08:27;14.52;;;5.28;;
48925;SDS011;39838;59.938;30.642;2023-05-29T05:10:55;12.48;;;4.93;;
48925;SDS011;39838;59.938;30.642;2023-05-29T05:13:24;10.02;;;4.30;;
48925;SDS011;39838;59.938;30.642;2023-05-29T05:15:52;15.95;;;4.90;;
48925;SDS011;39838;59.938;30.642;2023-05-29T05:18:19;12.60;;;5.13;;
48925;SDS011;39838;59.938;30.642;2023-05-29T05:20:46;10.60;;;4.90;;
48925;SDS011;39838;59.938;30.642;2023-05-29T05:23:13;17.27;;;5.10;;
48925;SDS011;39838;59.938;30.642;2023-05-29T05:25:41;14.25;;;5.32;;
48925;SDS011;39838;59.938;30.642;2023-05-29T05:28:08;9.73;;;4.93;;
48925;SDS011;39838;59.938;30.642;2023-05-29T05:30:37;10.52;;;4.80;;
48925;SDS011;39838;59.938;30.642;2023-05-29T05:33:04;10.07;;;4.97;;
48925;SDS011;39838;59.938;30.642;2023-05-29T05:35:31;11.13;;;4.47;;
48925;SDS011;39838;59.938;30.642;2023-05-29T05:37:59;13.02;;;4.97;;
48925;SDS011;39838;59.938;30.642;2023-05-29T05:40:26;11.35;;;4.75;;
48925;SDS011;39838;59.938;30.642;2023-05-29T05:42:53;13.93;;;5.00;;
48925;SDS011;39838;59.938;30.642;2023-05-29T05:45:21;16.50;;;5.05;;
48925;SDS011;39838;59.938;30.642;2023-05-29T05:47:49;10.82;;;4.60;;
48925;SDS011;39838;59.938;30.642;2023-05-29T05:50:16;9.73;;;5.07;;
48925;SDS011;39838;59.938;30.642;2023-05-29T05:52:43;15.68;;;4.90;;
48925;SDS011;39838;59.938;30.642;2023-05-29T05:55:11;9.15;;;4.53;;
48925;SDS011;39838;59.938;30.642;2023-05-29T05:57:38;10.65;;;4.13;;
48925;SDS011;39838;59.938;30.642;2023-05-29T06:00:05;11.43;;;4.63;;
48925;SDS011;39838;59.938;30.642;2023-05-29T06:02:37;12.38;;;4.72;;
48925;SDS011;39838;59.938;30.642;2023-05-29T06:05:08;11.70;;;4.70;;
48925;SDS011;39838;59.938;30.642;2023-05-29T06:07:35;9.35;;;4.38;;
48925;SDS011;39838;59.938;30.642;2023-05-29T06:10:02;8.23;;;3.90;;
48925;SDS011;39838;59.938;30.642;2023-05-29T06:12:30;10.10;;;4.53;;
48925;SDS011;39838;59.938;30.642;2023-05-29T06:14:57;11.73;;;4.50;;
48925;SDS011;39838;59.938;30.642;2023-05-29T06:17:25;10.45;;;4.35;;
48925;SDS011;39838;59.938;30.642;2023-05-29T06:19:52;10.93;;;4.47;;
48925;SDS011;39838;59.938;30.642;2023-05-29T06:22:20;10.43;;;4.22;;
48925;SDS011;39838;59.938;30.642;2023-05-29T06:24:48;12.07;;;4.15;;
48925;SDS011;39838;59.938;30.642;2023-05-29T06:27:15;8.02;;;3.90;;
48925;SDS011;39838;59.938;30.642;2023-05-29T06:29:43;10.98;;;4.53;;
48925;SDS011;39838;59.938;30.642;2023-05-29T06:32:10;7.07;;;4.55;;
48925;SDS011;39838;59.938;30.642;2023-05-29T06:34:37;10.48;;;4.15;;
48925;SDS011;39838;59.938;30.642;2023-05-29T06:37:04;11.07;;;4.68;;
48925;SDS011;39838;59.938;30.642;2023-05-29T06:39:33;14.75;;;4.43;;
48925;SDS011;39838;59.938;30.642;2023-05-29T06:42:00;10.35;;;4.18;;
48925;SDS011;39838;59.938;30.642;2023-05-29T06:44:28;9.65;;;4.25;;
48925;SDS011;39838;59.938;30.642;2023-05-29T06:46:55;16.38;;;4.43;;
48925;SDS011;39838;59.938;30.642;2023-05-29T06:49:22;10.93;;;4.30;;
48925;SDS011;39838;59.938;30.642;2023-05-29T06:51:49;9.80;;;4.28;;
48925;SDS011;39838;59.938;30.642;2023-05-29T06:54:16;11.60;;;4.15;;
48925;SDS011;39838;59.938;30.642;2023-05-29T06:56:45;12.30;;;4.53;;
48925;SDS011;39838;59.938;30.642;2023-05-29T06:59:12;16.60;;;4.15;;
48925;SDS011;39838;59.938;30.642;2023-05-29T07:01:39;11.13;;;3.72;;
48925;SDS011;39838;59.938;30.642;2023-05-29T07:04:06;10.50;;;3.90;;
48925;SDS011;39838;59.938;30.642;2023-05-29T07:06:33;10.63;;;3.90;;
48925;SDS011;39838;59.938;30.642;2023-05-29T07:09:01;13.07;;;4.00;;
48925;SDS011;39838;59.938;30.642;2023-05-29T07:11:28;9.00;;;3.25;;
48925;SDS011;39838;59.938;30.642;2023-05-29T07:13:56;11.73;;;4.18;;
48925;SDS011;39838;59.938;30.642;2023-05-29T07:16:25;9.40;;;3.70;;
48925;SDS011;39838;59.938;30.642;2023-05-29T07:18:52;12.95;;;3.55;;
48925;SDS011;39838;59.938;30.642;2023-05-29T07:21:19;12.30;;;4.03;;
48925;SDS011;39838;59.938;30.642;2023-05-29T07:23:47;11.07;;;3.80;;
48925;SDS011;39838;59.938;30.642;2023-05-29T07:26:14;10.70;;;3.50;;
48925;SDS011;39838;59.938;30.642;2023-05-29T07:28:41;8.05;;;3.80;;
48925;SDS011;39838;59.938;30.642;2023-05-29T07:31:09;8.20;;;3.47;;
48925;SDS011;39838;59.938;30.642;2023-05-29T07:33:37;7.88;;;3.90;;
48925;SDS011;39838;59.938;30.642;2023-05-29T07:36:06;11.35;;;3.45;;
48925;SDS011;39838;59.938;30.642;2023-05-29T07:38:33;8.88;;;3.88;;
48925;SDS011;39838;59.938;30.642;2023-05-29T07:41:01;7.47;;;3.30;;
48925;SDS011;39838;59.938;30.642;2023-05-29T07:43:28;12.35;;;4.25;;
48925;SDS011;39838;59.938;30.642;2023-05-29T07:45:55;8.75;;;3.85;;
48925;SDS011;39838;59.938;30.642;2023-05-29T07:48:24;10.98;;;3.97;;
48925;SDS011;39838;59.938;30.642;2023-05-29T07:50:51;8.25;;;3.72;;
48925;SDS011;39838;59.938;30.642;2023-05-29T07:53:18;8.13;;;3.30;;
48925;SDS011;39838;59.938;30.642;2023-05-29T07:55:45;6.72;;;3.38;;
48925;SDS011;39838;59.938;30.642;2023-05-29T07:58:13;14.85;;;3.50;;
48925;SDS011;39838;59.938;30.642;2023-05-29T08:00:43;7.55;;;3.47;;
48925;SDS011;39838;59.938;30.642;2023-05-29T08:03:10;7.18;;;3.08;;
48925;SDS011;39838;59.938;30.642;2023-05-29T08:05:39;7.85;;;3.15;;
48925;SDS011;39838;59.938;30.642;2023-05-29T08:08:06;9.85;;;3.30;;
48925;SDS011;39838;59.938;30.642;2023-05-29T08:10:34;11.48;;;3.42;;
48925;SDS011;39838;59.938;30.642;2023-05-29T08:13:01;8.85;;;3.03;;
48925;SDS011;39838;59.938;30.642;2023-05-29T08:15:28;11.70;;;3.25;;
48925;SDS011;39838;59.938;30.642;2023-05-29T08:17:56;6.47;;;3.13;;
48925;SDS011;39838;59.938;30.642;2023-05-29T08:20:23;7.10;;;3.03;;
48925;SDS011;39838;59.938;30.642;2023-05-29T08:22:52;7.35;;;3.35;;
48925;SDS011;39838;59.938;30.642;2023-05-29T08:25:19;6.53;;;3.20;;
48925;SDS011;39838;59.938;30.642;2023-05-29T08:27:47;9.50;;;2.90;;
48925;SDS011;39838;59.938;30.642;2023-05-29T08:30:14;7.30;;;3.38;;
48925;SDS011;39838;59.938;30.642;2023-05-29T08:32:41;6.07;;;2.90;;
48925;SDS011;39838;59.938;30.642;2023-05-29T08:35:08;9.75;;;3.47;;
48925;SDS011;39838;59.938;30.642;2023-05-29T08:37:36;8.88;;;3.17;;
48925;SDS011;39838;59.938;30.642;2023-05-29T08:40:05;12.57;;;3.03;;
48925;SDS011;39838;59.938;30.642;2023-05-29T08:42:36;11.88;;;3.40;;
48925;SDS011;39838;59.938;30.642;2023-05-29T08:45:07;9.65;;;3.38;;
48925;SDS011;39838;59.938;30.642;2023-05-29T08:47:40;8.27;;;3.13;;
48925;SDS011;39838;59.938;30.642;2023-05-29T08:50:07;5.63;;;3.10;;
48925;SDS011;39838;59.938;30.642;2023-05-29T08:52:36;8.88;;;3.08;;
48925;SDS011;39838;59.938;30.642;2023-05-29T08:55:07;6.57;;;3.08;;
48925;SDS011;39838;59.938;30.642;2023-05-29T08:57:35;7.38;;;3.03;;
48925;SDS011;39838;59.938;30.642;2023-05-29T09:00:05;6.25;;;2.63;;
48925;SDS011;39838;59.938;30.642;2023-05-29T09:02:37;10.25;;;3.08;;
48925;SDS011;39838;59.938;30.642;2023-05-29T09:05:05;7.80;;;2.70;;
48925;SDS011;39838;59.938;30.642;2023-05-29T09:07:34;4.95;;;2.53;;
48925;SDS011;39838;59.938;30.642;2023-05-29T09:10:03;6.70;;;2.85;;
48925;SDS011;39838;59.938;30.642;2023-05-29T09:12:33;6.38;;;2.97;;
48925;SDS011;39838;59.938;30.642;2023-05-29T09:15:01;13.95;;;3.20;;
48925;SDS011;39838;59.938;30.642;2023-05-29T09:17:32;8.93;;;2.60;;
48925;SDS011;39838;59.938;30.642;2023-05-29T09:20:00;11.10;;;2.67;;
48925;SDS011;39838;59.938;30.642;2023-05-29T09:22:30;5.45;;;2.63;;
48925;SDS011;39838;59.938;30.642;2023-05-29T09:24:57;6.15;;;2.80;;
48925;SDS011;39838;59.938;30.642;2023-05-29T09:27:25;12.30;;;2.63;;
48925;SDS011;39838;59.938;30.642;2023-05-29T09:29:54;7.20;;;2.72;;
48925;SDS011;39838;59.938;30.642;2023-05-29T09:32:21;5.47;;;2.75;;
48925;SDS011;39838;59.938;30.642;2023-05-29T09:34:49;14.32;;;2.58;;
48925;SDS011;39838;59.938;30.642;2023-05-29T09:37:21;6.32;;;2.60;;
48925;SDS011;39838;59.938;30.642;2023-05-29T09:39:48;5.40;;;2.78;;
48925;SDS011;39838;59.938;30.642;2023-05-29T09:42:17;6.30;;;2.55;;
48925;SDS011;39838;59.938;30.642;2023-05-29T09:44:44;4.88;;;2.10;;
48925;SDS011;39838;59.938;30.642;2023-05-29T09:47:17;8.90;;;2.50;;
48925;SDS011;39838;59.938;30.642;2023-05-29T09:49:45;5.25;;;1.92;;
48925;SDS011;39838;59.938;30.642;2023-05-29T09:52:13;9.05;;;1.85;;
48925;SDS011;39838;59.938;30.642;2023-05-29T09:54:42;5.28;;;1.80;;
48925;SDS011;39838;59.938;30.642;2023-05-29T09:57:12;5.93;;;1.60;;
48925;SDS011;39838;59.938;30.642;2023-05-29T09:59:40;5.60;;;1.80;;
48925;SDS011;39838;59.938;30.642;2023-05-29T10:02:10;9.10;;;2.10;;
48925;SDS011;39838;59.938;30.642;2023-05-29T10:04:40;4.43;;;1.58;;
48925;SDS011;39838;59.938;30.642;2023-05-29T10:07:10;7.55;;;1.63;;
48925;SDS011;39838;59.938;30.642;2023-05-29T10:09:47;5.13;;;1.45;;
48925;SDS011;39838;59.938;30.642;2023-05-29T10:12:19;6.55;;;1.70;;
48925;SDS011;39838;59.938;30.642;2023-05-29T10:14:47;4.28;;;1.40;;
48925;SDS011;39838;59.938;30.642;2023-05-29T10:17:16;4.82;;;1.70;;
48925;SDS011;39838;59.938;30.642;2023-05-29T10:19:50;5.47;;;1.58;;
48925;SDS011;39838;59.938;30.642;2023-05-29T10:22:19;3.25;;;1.50;;
48925;SDS011;39838;59.938;30.642;2023-05-29T10:24:48;5.65;;;1.50;;
48925;SDS011;39838;59.938;30.642;2023-05-29T10:27:17;7.20;;;1.73;;
48925;SDS011;39838;59.938;30.642;2023-05-29T10:29:47;6.07;;;1.75;;
48925;SDS011;39838;59.938;30.642;2023-05-29T10:32:21;5.60;;;1.70;;
48925;SDS011;39838;59.938;30.642;2023-05-29T10:34:55;2.88;;;1.50;;
48925;SDS011;39838;59.938;30.642;2023-05-29T10:37:35;5.50;;;1.85;;
48925;SDS011;39838;59.938;30.642;2023-05-29T10:40:07;4.15;;;2.17;;
48925;SDS011;39838;59.938;30.642;2023-05-29T10:42:44;7.18;;;1.77;;
48925;SDS011;39838;59.938;30.642;2023-05-29T10:51:27;4.20;;;1.42;;
48925;SDS011;39838;59.938;30.642;2023-05-29T10:53:56;3.55;;;1.20;;
48925;SDS011;39838;59.938;30.642;2023-05-29T10:56:27;2.90;;;1.40;;
48925;SDS011;39838;59.938;30.642;2023-05-29T10:58:58;2.70;;;1.23;;
48925;SDS011;39838;59.938;30.642;2023-05-29T11:01:27;2.95;;;1.10;;
48925;SDS011;39838;59.938;30.642;2023-05-29T11:06:58;1.80;;;1.10;;
48925;SDS011;39838;59.938;30.642;2023-05-29T11:09:27;5.68;;;1.13;;
48925;SDS011;39838;59.938;30.642;2023-05-29T11:12:14;5.32;;;1.48;;
48925;SDS011;39838;59.938;30.642;2023-05-29T11:15:01;2.42;;;1.00;;
48925;SDS011;39838;59.938;30.642;2023-05-29T11:17:42;2.22;;;1.20;;
48925;SDS011;39838;59.938;30.642;2023-05-29T11:20:16;3.00;;;1.10;;
48925;SDS011;39838;59.938;30.642;2023-05-29T11:23:04;2.92;;;1.48;;
48925;SDS011;39838;59.938;30.642;2023-05-29T11:25:34;2.17;;;0.95;;
48925;SDS011;39838;59.938;30.642;2023-05-29T11:28:04;3.00;;;1.10;;
48925;SDS011;39838;59.938;30.642;2023-05-29T11:30:43;10.15;;;1.33;;
48925;SDS011;39838;59.938;30.642;2023-05-29T11:33:15;6.38;;;1.50;;
48925;SDS011;39838;59.938;30.642;2023-05-29T11:35:50;4.50;;;1.23;;
48925;SDS011;39838;59.938;30.642;2023-05-29T11:38:26;8.93;;;1.15;;
48925;SDS011;39838;59.938;30.642;2023-05-29T11:40:54;6.18;;;1.20;;
48925;SDS011;39838;59.938;30.642;2023-05-29T11:43:21;3.92;;;1.20;;
48925;SDS011;39838;59.938;30.642;2023-05-29T11:45:49;4.43;;;1.55;;
48925;SDS011;39838;59.938;30.642;2023-05-29T11:48:17;3.30;;;0.88;;
48925;SDS011;39838;59.938;30.642;2023-05-29T11:50:44;3.55;;;0.90;;
48925;SDS011;39838;59.938;30.642;2023-05-29T11:53:11;7.13;;;1.30;;
48925;SDS011;39838;59.938;30.642;2023-05-29T11:55:40;3.33;;;1.05;;
48925;SDS011;39838;59.938;30.642;2023-05-29T11:58:07;3.63;;;1.40;;
48925;SDS011;39838;59.938;30.642;2023-05-29T12:00:35;4.28;;;1.33;;
48925;SDS011;39838;59.938;30.642;2023-05-29T12:03:05;6.72;;;1.90;;
48925;SDS011;39838;59.938;30.642;2023-05-29T12:05:33;3.80;;;1.40;;
48925;SDS011;39838;59.938;30.642;2023-05-29T12:08:11;3.78;;;1.08;;
48925;SDS011;39838;59.938;30.642;2023-05-29T12:10:42;3.97;;;1.48;;
48925;SDS011;39838;59.938;30.642;2023-05-29T12:13:13;3.85;;;1.05;;
48925;SDS011;39838;59.938;30.642;2023-05-29T12:15:42;6.72;;;1.27;;
48925;SDS011;39838;59.938;30.642;2023-05-29T12:18:10;5.78;;;1.30;;
48925;SDS011;39838;59.938;30.642;2023-05-29T12:20:37;1.73;;;1.08;;
48925;SDS011;39838;59.938;30.642;2023-05-29T12:23:04;8.52;;;1.58;;
48925;SDS011;39838;59.938;30.642;2023-05-29T12:25:33;3.28;;;0.98;;
48925;SDS011;39838;59.938;30.642;2023-05-29T12:28:04;3.50;;;1.00;;
48925;SDS011;39838;59.938;30.642;2023-05-29T12:30:36;6.35;;;1.30;;
48925;SDS011;39838;59.938;30.642;2023-05-29T12:33:05;3.50;;;1.40;;
48925;SDS011;39838;59.938;30.642;2023-05-29T12:35:33;6.03;;;1.20;;
48925;SDS011;39838;59.938;30.642;2023-05-29T12:38:00;7.78;;;1.55;;
48925;SDS011;39838;59.938;30.642;2023-05-29T12:40:29;3.55;;;1.00;;
48925;SDS011;39838;59.938;30.642;2023-05-29T12:43:00;3.60;;;1.00;;
48925;SDS011;39838;59.938;30.642;2023-05-29T12:45:30;4.82;;;1.30;;
48925;SDS011;39838;59.938;30.642;2023-05-29T12:47:59;4.20;;;1.30;;
48925;SDS011;39838;59.938;30.642;2023-05-29T12:50:28;5.95;;;1.60;;
48925;SDS011;39838;59.938;30.642;2023-05-29T12:52:58;5.15;;;1.38;;
48925;SDS011;39838;59.938;30.642;2023-05-29T12:55:26;2.00;;;1.00;;
48925;SDS011;39838;59.938;30.642;2023-05-29T12:57:54;6.57;;;1.60;;
48925;SDS011;39838;59.938;30.642;2023-05-29T13:00:22;10.15;;;1.70;;
48925;SDS011;39838;59.938;30.642;2023-05-29T13:02:51;3.90;;;1.05;;
48925;SDS011;39838;59.938;30.642;2023-05-29T13:05:18;4.15;;;1.30;;
48925;SDS011;39838;59.938;30.642;2023-05-29T13:07:48;11.18;;;1.83;;
48925;SDS011;39838;59.938;30.642;2023-05-29T13:10:16;5.53;;;1.27;;
48925;SDS011;39838;59.938;30.642;2023-05-29T13:12:45;2.92;;;1.30;;
48925;SDS011;39838;59.938;30.642;2023-05-29T13:15:12;5.50;;;1.20;;
48925;SDS011;39838;59.938;30.642;2023-05-29T13:17:40;7.95;;;1.70;;
48925;SDS011;39838;59.938;30.642;2023-05-29T13:20:11;7.90;;;1.60;;
48925;SDS011;39838;59.938;30.642;2023-05-29T13:22:39;12.25;;;1.70;;
48925;SDS011;39838;59.938;30.642;2023-05-29T13:25:09;12.05;;;1.80;;
48925;SDS011;39838;59.938;30.642;2023-05-29T13:27:37;8.18;;;1.60;;
48925;SDS011;39838;59.938;30.642;2023-05-29T13:30:07;10.15;;;1.65;;
48925;SDS011;39838;59.938;30.642;2023-05-29T13:32:35;12.35;;;1.90;;
48925;SDS011;39838;59.938;30.642;2023-05-29T13:35:03;13.25;;;1.70;;
48925;SDS011;39838;59.938;30.642;2023-05-29T13:37:32;6.93;;;1.63;;
48925;SDS011;39838;59.938;30.642;2023-05-29T13:39:59;7.30;;;1.70;;
48925;SDS011;39838;59.938;30.642;2023-05-29T13:42:27;8.50;;;1.67;;
48925;SDS011;39838;59.938;30.642;2023-05-29T13:44:54;10.15;;;1.50;;
48925;SDS011;39838;59.938;30.642;2023-05-29T13:47:21;7.63;;;1.70;;
48925;SDS011;39838;59.938;30.642;2023-05-29T13:49:48;9.75;;;1.75;;
48925;SDS011;39838;59.938;30.642;2023-05-29T13:52:15;5.50;;;1.42;;
48925;SDS011;39838;59.938;30.642;2023-05-29T13:54:44;5.40;;;1.92;;
48925;SDS011;39838;59.938;30.642;2023-05-29T13:57:11;4.97;;;1.60;;
48925;SDS011;39838;59.938;30.642;2023-05-29T13:59:38;10.68;;;1.83;;
48925;SDS011;39838;59.938;30.642;2023-05-29T14:02:05;4.28;;;1.23;;
48925;SDS011;39838;59.938;30.642;2023-05-29T14:04:34;6.10;;;1.73;;
48925;SDS011;39838;59.938;30.642;2023-05-29T14:07:01;3.05;;;1.40;;
48925;SDS011;39838;59.938;30.642;2023-05-29T14:09:28;2.97;;;1.40;;
48925;SDS011;39838;59.938;30.642;2023-05-29T14:11:57;4.07;;;1.38;;
48925;SDS011;39838;59.938;30.642;2023-05-29T14:14:25;8.75;;;1.77;;
48925;SDS011;39838;59.938;30.642;2023-05-29T14:16:53;7.82;;;1.40;;
48925;SDS011;39838;59.938;30.642;2023-05-29T14:19:21;4.38;;;1.30;;
48925;SDS011;39838;59.938;30.642;2023-05-29T14:21:48;11.98;;;1.30;;
48925;SDS011;39838;59.938;30.642;2023-05-29T14:24:15;4.10;;;1.30;;
48925;SDS011;39838;59.938;30.642;2023-05-29T14:26:44;10.10;;;1.40;;
48925;SDS011;39838;59.938;30.642;2023-05-29T14:29:14;12.65;;;1.80;;
48925;SDS011;39838;59.938;30.642;2023-05-29T14:31:42;11.18;;;1.70;;
48925;SDS011;39838;59.938;30.642;2023-05-29T14:34:11;11.32;;;1.92;;
48925;SDS011;39838;59.938;30.642;2023-05-29T14:36:39;12.23;;;2.00;;
48925;SDS011;39838;59.938;30.642;2023-05-29T14:39:10;10.80;;;1.80;;
48925;SDS011;39838;59.938;30.642;2023-05-29T14:41:38;5.55;;;1.73;;
48925;SDS011;39838;59.938;30.642;2023-05-29T14:44:05;12.85;;;1.77;;
48925;SDS011;39838;59.938;30.642;2023-05-29T14:46:34;10.73;;;1.45;;